sensor_id;sensor_type;location;lat;lon;timestamp;P1;durP1;ratioP1;P2;durP2;ratioP2
6015;SDS011;3036;49.960;8.454;2024-01-07T00:00:08;1.77;;;1.67;;
6015;SDS011;3036;49.960;8.454;2024-01-07T00:02:36;2.50;;;2.33;;
6015;SDS011;3036;49.960;8.454;2024-01-07T00:05:03;1.50;;;1.50;;
6015;SDS011;3036;49.960;8.454;2024-01-07T00:07:31;1.93;;;1.83;;
6015;SDS011;3036;49.960;8.454;2024-01-07T00:09:58;2.70;;;2.10;;
6015;SDS011;3036;49.960;8.454;2024-01-07T00:12:25;2.17;;;1.97;;
6015;SDS011;3036;49.960;8.454;2024-01-07T00:14:52;2.53;;;2.40;;
6015;SDS011;3036;49.960;8.454;2024-01-07T00:17:20;2.10;;;2.00;;
6015;SDS011;3036;49.960;8.454;2024-01-07T00:19:47;2.07;;;1.97;;
6015;SDS011;3036;49.960;8.454;2024-01-07T00:22:14;1.77;;;1.67;;
6015;SDS011;3036;49.960;8.454;2024-01-07T00:24:42;2.27;;;2.17;;
6015;SDS011;3036;49.960;8.454;2024-01-07T00:27:09;2.13;;;2.03;;
6015;SDS011;3036;49.960;8.454;2024-01-07T00:29:36;2.30;;;2.20;;
6015;SDS011;3036;49.960;8.454;2024-01-07T00:32:03;2.43;;;2.33;;
6015;SDS011;3036;49.960;8.454;2024-01-07T00:34:30;1.90;;;1.80;;
6015;SDS011;3036;49.960;8.454;2024-01-07T00:36:57;1.93;;;1.83;;
6015;SDS011;3036;49.960;8.454;2024-01-07T00:39:24;2.07;;;1.97;;
6015;SDS011;3036;49.960;8.454;2024-01-07T00:41:53;2.23;;;2.10;;
6015;SDS011;3036;49.960;8.454;2024-01-07T00:44:20;2.30;;;2.20;;
6015;SDS011;3036;49.960;8.454;2024-01-07T00:46:47;2.43;;;2.33;;
6015;SDS011;3036;49.960;8.454;2024-01-07T00:49:14;2.70;;;2.50;;
6015;SDS011;3036;49.960;8.454;2024-01-07T00:51:42;2.40;;;2.20;;
6015;SDS011;3036;49.960;8.454;2024-01-07T00:54:09;2.07;;;1.97;;
6015;SDS011;3036;49.960;8.454;2024-01-07T00:56:36;2.40;;;2.20;;
6015;SDS011;3036;49.960;8.454;2024-01-07T00:59:04;2.47;;;2.23;;
6015;SDS011;3036;49.960;8.454;2024-01-07T01:01:31;2.27;;;2.13;;
6015;SDS011;3036;49.960;8.454;2024-01-07T01:03:58;1.83;;;1.73;;
6015;SDS011;3036;49.960;8.454;2024-01-07T01:06:25;1.73;;;1.63;;
6015;SDS011;3036;49.960;8.454;2024-01-07T01:08:52;2.57;;;2.37;;
6015;SDS011;3036;49.960;8.454;2024-01-07T01:11:19;2.00;;;1.70;;
6015;SDS011;3036;49.960;8.454;2024-01-07T01:13:46;1.97;;;1.87;;
6015;SDS011;3036;49.960;8.454;2024-01-07T01:16:14;2.10;;;2.00;;
6015;SDS011;3036;49.960;8.454;2024-01-07T01:18:41;2.33;;;2.17;;
6015;SDS011;3036;49.960;8.454;2024-01-07T01:21:09;1.80;;;1.70;;
6015;SDS011;3036;49.960;8.454;2024-01-07T01:23:37;1.67;;;1.57;;
6015;SDS011;3036;49.960;8.454;2024-01-07T01:26:04;1.90;;;1.80;;
6015;SDS011;3036;49.960;8.454;2024-01-07T01:28:31;1.77;;;1.67;;
6015;SDS011;3036;49.960;8.454;2024-01-07T01:30:58;1.07;;;1.07;;
6015;SDS011;3036;49.960;8.454;2024-01-07T01:33:26;1.30;;;1.30;;
6015;SDS011;3036;49.960;8.454;2024-01-07T01:35:53;0.83;;;0.83;;
6015;SDS011;3036;49.960;8.454;2024-01-07T01:38:20;1.23;;;1.20;;
6015;SDS011;3036;49.960;8.454;2024-01-07T01:40:51;1.03;;;1.03;;
6015;SDS011;3036;49.960;8.454;2024-01-07T01:43:22;0.90;;;0.90;;
6015;SDS011;3036;49.960;8.454;2024-01-07T01:45:49;0.93;;;0.93;;
6015;SDS011;3036;49.960;8.454;2024-01-07T01:48:16;0.90;;;0.80;;
6015;SDS011;3036;49.960;8.454;2024-01-07T01:50:44;1.20;;;1.00;;
6015;SDS011;3036;49.960;8.454;2024-01-07T01:53:12;1.00;;;1.00;;
6015;SDS011;3036;49.960;8.454;2024-01-07T01:55:39;1.07;;;1.00;;
6015;SDS011;3036;49.960;8.454;2024-01-07T01:58:06;0.90;;;0.90;;
6015;SDS011;3036;49.960;8.454;2024-01-07T02:00:35;0.70;;;0.70;;
6015;SDS011;3036;49.960;8.454;2024-01-07T02:03:02;0.77;;;0.77;;
6015;SDS011;3036;49.960;8.454;2024-01-07T02:05:29;1.10;;;0.77;;
6015;SDS011;3036;49.960;8.454;2024-01-07T02:07:58;0.53;;;0.53;;
6015;SDS011;3036;49.960;8.454;2024-01-07T02:10:25;0.90;;;0.90;;
6015;SDS011;3036;49.960;8.454;2024-01-07T02:12:54;0.90;;;0.90;;
6015;SDS011;3036;49.960;8.454;2024-01-07T02:15:21;1.10;;;1.10;;
6015;SDS011;3036;49.960;8.454;2024-01-07T02:17:48;0.63;;;0.63;;
6015;SDS011;3036;49.960;8.454;2024-01-07T02:20:15;0.90;;;0.90;;
6015;SDS011;3036;49.960;8.454;2024-01-07T02:22:42;0.67;;;0.67;;
6015;SDS011;3036;49.960;8.454;2024-01-07T02:25:10;0.70;;;0.70;;
6015;SDS011;3036;49.960;8.454;2024-01-07T02:27:37;1.10;;;1.10;;
6015;SDS011;3036;49.960;8.454;2024-01-07T02:30:05;0.50;;;0.50;;
6015;SDS011;3036;49.960;8.454;2024-01-07T02:32:32;0.93;;;0.67;;
6015;SDS011;3036;49.960;8.454;2024-01-07T02:35:00;0.67;;;0.67;;
6015;SDS011;3036;49.960;8.454;2024-01-07T02:37:27;0.70;;;0.70;;
6015;SDS011;3036;49.960;8.454;2024-01-07T02:39:54;0.50;;;0.50;;
6015;SDS011;3036;49.960;8.454;2024-01-07T02:42:23;0.40;;;0.40;;
6015;SDS011;3036;49.960;8.454;2024-01-07T02:44:50;0.70;;;0.70;;
6015;SDS011;3036;49.960;8.454;2024-01-07T02:47:17;0.57;;;0.50;;
6015;SDS011;3036;49.960;8.454;2024-01-07T02:49:44;0.93;;;0.47;;
6015;SDS011;3036;49.960;8.454;2024-01-07T02:52:11;0.80;;;0.80;;
6015;SDS011;3036;49.960;8.454;2024-01-07T02:54:38;0.40;;;0.40;;
6015;SDS011;3036;49.960;8.454;2024-01-07T02:57:05;0.87;;;0.70;;
6015;SDS011;3036;49.960;8.454;2024-01-07T02:59:33;0.80;;;0.30;;
6015;SDS011;3036;49.960;8.454;2024-01-07T03:02:00;0.87;;;0.87;;
6015;SDS011;3036;49.960;8.454;2024-01-07T03:04:27;1.00;;;0.97;;
6015;SDS011;3036;49.960;8.454;2024-01-07T03:06:54;0.90;;;0.90;;
6015;SDS011;3036;49.960;8.454;2024-01-07T03:09:21;0.80;;;0.80;;
6015;SDS011;3036;49.960;8.454;2024-01-07T03:11:48;0.53;;;0.33;;
6015;SDS011;3036;49.960;8.454;2024-01-07T03:14:15;0.80;;;0.80;;
6015;SDS011;3036;49.960;8.454;2024-01-07T03:16:46;0.60;;;0.60;;
6015;SDS011;3036;49.960;8.454;2024-01-07T03:19:13;0.60;;;0.60;;
6015;SDS011;3036;49.960;8.454;2024-01-07T03:21:40;1.43;;;0.87;;
6015;SDS011;3036;49.960;8.454;2024-01-07T03:24:07;1.00;;;0.90;;
6015;SDS011;3036;49.960;8.454;2024-01-07T03:26:35;0.93;;;0.93;;
6015;SDS011;3036;49.960;8.454;2024-01-07T03:29:02;0.93;;;0.80;;
6015;SDS011;3036;49.960;8.454;2024-01-07T03:31:29;0.90;;;0.90;;
6015;SDS011;3036;49.960;8.454;2024-01-07T03:33:57;0.70;;;0.70;;
6015;SDS011;3036;49.960;8.454;2024-01-07T03:36:24;1.10;;;1.10;;
6015;SDS011;3036;49.960;8.454;2024-01-07T03:38:51;0.73;;;0.73;;
6015;SDS011;3036;49.960;8.454;2024-01-07T03:41:19;1.00;;;1.00;;
6015;SDS011;3036;49.960;8.454;2024-01-07T03:43:46;0.90;;;0.90;;
6015;SDS011;3036;49.960;8.454;2024-01-07T03:46:14;1.27;;;1.17;;
6015;SDS011;3036;49.960;8.454;2024-01-07T03:48:41;1.33;;;1.30;;
6015;SDS011;3036;49.960;8.454;2024-01-07T03:51:09;1.27;;;1.07;;
6015;SDS011;3036;49.960;8.454;2024-01-07T03:53:36;0.80;;;0.80;;
6015;SDS011;3036;49.960;8.454;2024-01-07T03:56:03;1.30;;;1.20;;
6015;SDS011;3036;49.960;8.454;2024-01-07T03:58:31;1.50;;;1.40;;
6015;SDS011;3036;49.960;8.454;2024-01-07T04:00:58;1.07;;;1.07;;
6015;SDS011;3036;49.960;8.454;2024-01-07T04:03:25;1.00;;;1.00;;
6015;SDS011;3036;49.960;8.454;2024-01-07T04:05:52;4.10;;;1.57;;
6015;SDS011;3036;49.960;8.454;2024-01-07T04:08:20;1.63;;;1.53;;
6015;SDS011;3036;49.960;8.454;2024-01-07T04:10:48;1.50;;;1.40;;
6015;SDS011;3036;49.960;8.454;2024-01-07T04:13:15;0.83;;;0.83;;
6015;SDS011;3036;49.960;8.454;2024-01-07T04:15:42;0.83;;;0.83;;
6015;SDS011;3036;49.960;8.454;2024-01-07T04:18:09;1.73;;;1.60;;
6015;SDS011;3036;49.960;8.454;2024-01-07T04:20:36;0.87;;;0.87;;
6015;SDS011;3036;49.960;8.454;2024-01-07T04:23:03;1.43;;;1.33;;
6015;SDS011;3036;49.960;8.454;2024-01-07T04:25:32;1.47;;;1.47;;
6015;SDS011;3036;49.960;8.454;2024-01-07T04:27:59;2.00;;;1.80;;
6015;SDS011;3036;49.960;8.454;2024-01-07T04:30:26;1.67;;;1.57;;
6015;SDS011;3036;49.960;8.454;2024-01-07T04:32:53;1.53;;;1.43;;
6015;SDS011;3036;49.960;8.454;2024-01-07T04:35:20;1.67;;;1.57;;
6015;SDS011;3036;49.960;8.454;2024-01-07T04:37:47;1.40;;;1.40;;
6015;SDS011;3036;49.960;8.454;2024-01-07T04:40:14;1.07;;;1.07;;
6015;SDS011;3036;49.960;8.454;2024-01-07T04:42:43;1.63;;;1.53;;
6015;SDS011;3036;49.960;8.454;2024-01-07T04:45:10;2.00;;;1.87;;
6015;SDS011;3036;49.960;8.454;2024-01-07T04:47:37;2.13;;;2.03;;
6015;SDS011;3036;49.960;8.454;2024-01-07T04:50:04;1.10;;;1.03;;
6015;SDS011;3036;49.960;8.454;2024-01-07T04:52:31;1.90;;;1.23;;
6015;SDS011;3036;49.960;8.454;2024-01-07T04:54:58;1.47;;;1.37;;
6015;SDS011;3036;49.960;8.454;2024-01-07T04:57:25;1.50;;;1.40;;
6015;SDS011;3036;49.960;8.454;2024-01-07T04:59:54;2.40;;;1.97;;
6015;SDS011;3036;49.960;8.454;2024-01-07T05:02:21;1.80;;;1.70;;
6015;SDS011;3036;49.960;8.454;2024-01-07T05:04:48;0.90;;;0.90;;
6015;SDS011;3036;49.960;8.454;2024-01-07T05:07:15;1.23;;;1.13;;
6015;SDS011;3036;49.960;8.454;2024-01-07T05:09:42;1.23;;;1.23;;
6015;SDS011;3036;49.960;8.454;2024-01-07T05:12:09;1.60;;;1.50;;
6015;SDS011;3036;49.960;8.454;2024-01-07T05:14:36;1.73;;;1.60;;
6015;SDS011;3036;49.960;8.454;2024-01-07T05:17:05;1.27;;;1.20;;
6015;SDS011;3036;49.960;8.454;2024-01-07T05:19:32;1.30;;;1.30;;
6015;SDS011;3036;49.960;8.454;2024-01-07T05:21:59;1.30;;;1.20;;
6015;SDS011;3036;49.960;8.454;2024-01-07T05:24:26;2.33;;;2.13;;
6015;SDS011;3036;49.960;8.454;2024-01-07T05:26:53;2.53;;;2.03;;
6015;SDS011;3036;49.960;8.454;2024-01-07T05:29:20;3.07;;;2.83;;
6015;SDS011;3036;49.960;8.454;2024-01-07T05:31:47;3.43;;;2.10;;
6015;SDS011;3036;49.960;8.454;2024-01-07T05:34:15;1.67;;;1.67;;
6015;SDS011;3036;49.960;8.454;2024-01-07T05:36:43;1.50;;;1.40;;
6015;SDS011;3036;49.960;8.454;2024-01-07T05:39:10;1.67;;;1.60;;
6015;SDS011;3036;49.960;8.454;2024-01-07T05:41:37;3.50;;;1.47;;
6015;SDS011;3036;49.960;8.454;2024-01-07T05:44:06;1.60;;;1.50;;
6015;SDS011;3036;49.960;8.454;2024-01-07T05:46:33;3.67;;;3.17;;
6015;SDS011;3036;49.960;8.454;2024-01-07T05:49:00;4.53;;;2.27;;
6015;SDS011;3036;49.960;8.454;2024-01-07T05:51:29;2.77;;;2.17;;
6015;SDS011;3036;49.960;8.454;2024-01-07T05:53:56;2.80;;;2.60;;
6015;SDS011;3036;49.960;8.454;2024-01-07T05:56:23;2.57;;;2.10;;
6015;SDS011;3036;49.960;8.454;2024-01-07T05:58:50;3.63;;;3.10;;
6015;SDS011;3036;49.960;8.454;2024-01-07T06:01:18;4.00;;;3.53;;
6015;SDS011;3036;49.960;8.454;2024-01-07T06:03:45;2.00;;;1.33;;
6015;SDS011;3036;49.960;8.454;2024-01-07T06:06:12;4.77;;;3.80;;
6015;SDS011;3036;49.960;8.454;2024-01-07T06:08:41;5.50;;;3.90;;
6015;SDS011;3036;49.960;8.454;2024-01-07T06:11:08;6.33;;;3.00;;
6015;SDS011;3036;49.960;8.454;2024-01-07T06:13:36;3.40;;;2.63;;
6015;SDS011;3036;49.960;8.454;2024-01-07T06:16:03;5.67;;;2.83;;
6015;SDS011;3036;49.960;8.454;2024-01-07T06:18:30;6.57;;;3.07;;
6015;SDS011;3036;49.960;8.454;2024-01-07T06:20:57;4.37;;;3.33;;
6015;SDS011;3036;49.960;8.454;2024-01-07T06:23:24;7.00;;;4.93;;
6015;SDS011;3036;49.960;8.454;2024-01-07T06:25:52;5.67;;;4.07;;
6015;SDS011;3036;49.960;8.454;2024-01-07T06:28:19;3.30;;;3.07;;
6015;SDS011;3036;49.960;8.454;2024-01-07T06:30:47;4.80;;;3.37;;
6015;SDS011;3036;49.960;8.454;2024-01-07T06:33:14;7.07;;;4.73;;
6015;SDS011;3036;49.960;8.454;2024-01-07T06:35:41;3.00;;;2.77;;
6015;SDS011;3036;49.960;8.454;2024-01-07T06:38:08;4.27;;;3.87;;
6015;SDS011;3036;49.960;8.454;2024-01-07T06:40:35;3.60;;;3.07;;
6015;SDS011;3036;49.960;8.454;2024-01-07T06:43:03;2.13;;;2.00;;
6015;SDS011;3036;49.960;8.454;2024-01-07T06:45:31;1.90;;;1.77;;
6015;SDS011;3036;49.960;8.454;2024-01-07T06:47:58;6.10;;;3.63;;
6015;SDS011;3036;49.960;8.454;2024-01-07T06:50:25;3.43;;;3.23;;
6015;SDS011;3036;49.960;8.454;2024-01-07T06:52:52;2.20;;;2.00;;
6015;SDS011;3036;49.960;8.454;2024-01-07T06:55:21;2.07;;;1.87;;
6015;SDS011;3036;49.960;8.454;2024-01-07T06:57:48;2.70;;;1.50;;
6015;SDS011;3036;49.960;8.454;2024-01-07T07:00:17;2.57;;;2.33;;
6015;SDS011;3036;49.960;8.454;2024-01-07T07:02:44;1.40;;;1.40;;
6015;SDS011;3036;49.960;8.454;2024-01-07T07:05:11;1.90;;;1.77;;
6015;SDS011;3036;49.960;8.454;2024-01-07T07:07:38;2.63;;;1.80;;
6015;SDS011;3036;49.960;8.454;2024-01-07T07:10:05;2.87;;;2.67;;
6015;SDS011;3036;49.960;8.454;2024-01-07T07:12:32;1.00;;;1.00;;
6015;SDS011;3036;49.960;8.454;2024-01-07T07:14:59;1.93;;;1.67;;
6015;SDS011;3036;49.960;8.454;2024-01-07T07:17:27;1.90;;;1.80;;
6015;SDS011;3036;49.960;8.454;2024-01-07T07:19:54;2.00;;;1.67;;
6015;SDS011;3036;49.960;8.454;2024-01-07T07:22:21;2.10;;;2.00;;
6015;SDS011;3036;49.960;8.454;2024-01-07T07:24:48;3.27;;;1.87;;
6015;SDS011;3036;49.960;8.454;2024-01-07T07:27:15;5.77;;;3.00;;
6015;SDS011;3036;49.960;8.454;2024-01-07T07:29:43;2.97;;;2.67;;
6015;SDS011;3036;49.960;8.454;2024-01-07T07:32:10;2.17;;;2.07;;
6015;SDS011;3036;49.960;8.454;2024-01-07T07:34:38;2.30;;;2.07;;
6015;SDS011;3036;49.960;8.454;2024-01-07T07:37:05;2.97;;;2.57;;
6015;SDS011;3036;49.960;8.454;2024-01-07T07:39:32;4.67;;;3.60;;
6015;SDS011;3036;49.960;8.454;2024-01-07T07:41:59;3.40;;;3.10;;
6015;SDS011;3036;49.960;8.454;2024-01-07T07:44:26;2.83;;;1.53;;
6015;SDS011;3036;49.960;8.454;2024-01-07T07:46:53;5.20;;;4.00;;
6015;SDS011;3036;49.960;8.454;2024-01-07T07:49:20;2.47;;;1.80;;
6015;SDS011;3036;49.960;8.454;2024-01-07T07:51:49;3.43;;;2.33;;
6015;SDS011;3036;49.960;8.454;2024-01-07T07:54:16;4.17;;;3.77;;
6015;SDS011;3036;49.960;8.454;2024-01-07T07:56:43;5.67;;;4.00;;
6015;SDS011;3036;49.960;8.454;2024-01-07T07:59:10;5.20;;;3.63;;
6015;SDS011;3036;49.960;8.454;2024-01-07T08:01:37;4.43;;;2.73;;
6015;SDS011;3036;49.960;8.454;2024-01-07T08:04:04;3.10;;;2.87;;
6015;SDS011;3036;49.960;8.454;2024-01-07T08:06:33;6.70;;;4.33;;
6015;SDS011;3036;49.960;8.454;2024-01-07T08:09:01;4.43;;;2.87;;
6015;SDS011;3036;49.960;8.454;2024-01-07T08:11:28;5.87;;;4.57;;
6015;SDS011;3036;49.960;8.454;2024-01-07T08:13:55;3.40;;;2.63;;
6015;SDS011;3036;49.960;8.454;2024-01-07T08:16:23;3.57;;;2.70;;
6015;SDS011;3036;49.960;8.454;2024-01-07T08:18:50;3.80;;;3.27;;
6015;SDS011;3036;49.960;8.454;2024-01-07T08:21:17;3.50;;;3.20;;
6015;SDS011;3036;49.960;8.454;2024-01-07T08:23:45;1.87;;;1.77;;
6015;SDS011;3036;49.960;8.454;2024-01-07T08:26:14;2.10;;;2.00;;
6015;SDS011;3036;49.960;8.454;2024-01-07T08:28:44;5.77;;;4.00;;
6015;SDS011;3036;49.960;8.454;2024-01-07T08:31:11;3.87;;;2.87;;
6015;SDS011;3036;49.960;8.454;2024-01-07T08:33:38;8.00;;;5.07;;
6015;SDS011;3036;49.960;8.454;2024-01-07T08:36:05;2.50;;;2.17;;
6015;SDS011;3036;49.960;8.454;2024-01-07T08:38:33;3.03;;;1.47;;
6015;SDS011;3036;49.960;8.454;2024-01-07T08:41:00;3.70;;;2.43;;
6015;SDS011;3036;49.960;8.454;2024-01-07T08:43:28;4.40;;;3.17;;
6015;SDS011;3036;49.960;8.454;2024-01-07T08:45:55;4.67;;;3.40;;
6015;SDS011;3036;49.960;8.454;2024-01-07T08:48:22;6.17;;;4.27;;
6015;SDS011;3036;49.960;8.454;2024-01-07T08:50:50;4.13;;;2.73;;
6015;SDS011;3036;49.960;8.454;2024-01-07T08:53:17;5.43;;;2.97;;
6015;SDS011;3036;49.960;8.454;2024-01-07T08:55:45;4.50;;;2.73;;
6015;SDS011;3036;49.960;8.454;2024-01-07T08:58:12;3.77;;;2.63;;
6015;SDS011;3036;49.960;8.454;2024-01-07T09:00:41;3.53;;;3.13;;
6015;SDS011;3036;49.960;8.454;2024-01-07T09:03:08;5.20;;;3.93;;
6015;SDS011;3036;49.960;8.454;2024-01-07T09:05:35;9.93;;;5.13;;
6015;SDS011;3036;49.960;8.454;2024-01-07T09:08:03;7.07;;;4.13;;
6015;SDS011;3036;49.960;8.454;2024-01-07T09:10:31;2.77;;;2.57;;
6015;SDS011;3036;49.960;8.454;2024-01-07T09:12:58;7.90;;;3.27;;
6015;SDS011;3036;49.960;8.454;2024-01-07T09:15:25;2.27;;;2.07;;
6015;SDS011;3036;49.960;8.454;2024-01-07T09:17:54;7.17;;;3.90;;
6015;SDS011;3036;49.960;8.454;2024-01-07T09:20:21;5.03;;;3.67;;
6015;SDS011;3036;49.960;8.454;2024-01-07T09:22:48;2.53;;;1.70;;
6015;SDS011;3036;49.960;8.454;2024-01-07T09:25:15;4.40;;;3.10;;
6015;SDS011;3036;49.960;8.454;2024-01-07T09:27:42;3.57;;;3.27;;
6015;SDS011;3036;49.960;8.454;2024-01-07T09:30:10;2.67;;;2.20;;
6015;SDS011;3036;49.960;8.454;2024-01-07T09:32:39;5.67;;;3.00;;
6015;SDS011;3036;49.960;8.454;2024-01-07T09:35:08;5.73;;;4.17;;
6015;SDS011;3036;49.960;8.454;2024-01-07T09:37:35;9.03;;;3.43;;
6015;SDS011;3036;49.960;8.454;2024-01-07T09:40:02;6.53;;;2.67;;
6015;SDS011;3036;49.960;8.454;2024-01-07T09:42:31;7.57;;;4.00;;
6015;SDS011;3036;49.960;8.454;2024-01-07T09:44:58;4.23;;;2.73;;
6015;SDS011;3036;49.960;8.454;2024-01-07T09:47:28;7.13;;;3.43;;
6015;SDS011;3036;49.960;8.454;2024-01-07T09:49:56;3.10;;;2.70;;
6015;SDS011;3036;49.960;8.454;2024-01-07T09:52:24;3.77;;;2.73;;
6015;SDS011;3036;49.960;8.454;2024-01-07T09:54:54;9.13;;;2.70;;
6015;SDS011;3036;49.960;8.454;2024-01-07T09:57:24;2.63;;;2.40;;
6015;SDS011;3036;49.960;8.454;2024-01-07T09:59:51;3.93;;;3.33;;
6015;SDS011;3036;49.960;8.454;2024-01-07T10:02:18;4.27;;;2.63;;
6015;SDS011;3036;49.960;8.454;2024-01-07T10:04:45;4.33;;;2.77;;
6015;SDS011;3036;49.960;8.454;2024-01-07T10:07:13;6.03;;;3.07;;
6015;SDS011;3036;49.960;8.454;2024-01-07T10:09:41;8.30;;;4.77;;
6015;SDS011;3036;49.960;8.454;2024-01-07T10:12:08;6.37;;;4.60;;
6015;SDS011;3036;49.960;8.454;2024-01-07T10:14:37;2.30;;;2.17;;
6015;SDS011;3036;49.960;8.454;2024-01-07T10:17:11;4.37;;;3.20;;
6015;SDS011;3036;49.960;8.454;2024-01-07T10:19:41;6.80;;;4.40;;
6015;SDS011;3036;49.960;8.454;2024-01-07T10:22:09;6.87;;;4.43;;
6015;SDS011;3036;49.960;8.454;2024-01-07T10:24:38;3.53;;;3.23;;
6015;SDS011;3036;49.960;8.454;2024-01-07T10:27:07;2.70;;;2.10;;
6015;SDS011;3036;49.960;8.454;2024-01-07T10:29:34;3.73;;;2.63;;
6015;SDS011;3036;49.960;8.454;2024-01-07T10:32:02;2.00;;;1.90;;
6015;SDS011;3036;49.960;8.454;2024-01-07T10:34:30;3.93;;;2.37;;
6015;SDS011;3036;49.960;8.454;2024-01-07T10:36:58;3.20;;;2.97;;
6015;SDS011;3036;49.960;8.454;2024-01-07T10:39:25;2.47;;;2.23;;
6015;SDS011;3036;49.960;8.454;2024-01-07T10:41:54;2.53;;;1.87;;
6015;SDS011;3036;49.960;8.454;2024-01-07T10:44:24;1.87;;;1.77;;
6015;SDS011;3036;49.960;8.454;2024-01-07T10:46:52;2.80;;;2.60;;
6015;SDS011;3036;49.960;8.454;2024-01-07T10:49:20;1.63;;;1.60;;
6015;SDS011;3036;49.960;8.454;2024-01-07T10:51:49;4.07;;;3.40;;
6015;SDS011;3036;49.960;8.454;2024-01-07T10:54:17;2.00;;;1.90;;
6015;SDS011;3036;49.960;8.454;2024-01-07T10:56:46;3.83;;;3.47;;
6015;SDS011;3036;49.960;8.454;2024-01-07T10:59:15;3.20;;;2.90;;
6015;SDS011;3036;49.960;8.454;2024-01-07T11:01:44;2.50;;;2.33;;
6015;SDS011;3036;49.960;8.454;2024-01-07T11:04:13;2.90;;;2.67;;
6015;SDS011;3036;49.960;8.454;2024-01-07T11:06:42;2.10;;;2.00;;
6015;SDS011;3036;49.960;8.454;2024-01-07T11:09:14;3.37;;;2.60;;
6015;SDS011;3036;49.960;8.454;2024-01-07T11:11:44;4.17;;;3.23;;
6015;SDS011;3036;49.960;8.454;2024-01-07T11:16:58;2.00;;;1.90;;
6015;SDS011;3036;49.960;8.454;2024-01-07T11:19:25;2.83;;;2.63;;
6015;SDS011;3036;49.960;8.454;2024-01-07T11:21:52;3.57;;;2.43;;
6015;SDS011;3036;49.960;8.454;2024-01-07T11:24:38;4.53;;;2.90;;
6015;SDS011;3036;49.960;8.454;2024-01-07T11:27:07;1.43;;;1.43;;
6015;SDS011;3036;49.960;8.454;2024-01-07T11:29:34;1.83;;;1.80;;
6015;SDS011;3036;49.960;8.454;2024-01-07T11:32:03;2.87;;;2.23;;
6015;SDS011;3036;49.960;8.454;2024-01-07T11:34:38;3.27;;;2.20;;
6015;SDS011;3036;49.960;8.454;2024-01-07T11:37:07;2.60;;;1.97;;
6015;SDS011;3036;49.960;8.454;2024-01-07T11:39:34;3.43;;;2.10;;
6015;SDS011;3036;49.960;8.454;2024-01-07T11:42:01;2.17;;;2.07;;
6015;SDS011;3036;49.960;8.454;2024-01-07T11:44:29;7.63;;;2.13;;
6015;SDS011;3036;49.960;8.454;2024-01-07T11:46:56;1.87;;;1.33;;
6015;SDS011;3036;49.960;8.454;2024-01-07T11:49:24;4.87;;;3.63;;
6015;SDS011;3036;49.960;8.454;2024-01-07T11:51:51;3.73;;;2.97;;
6015;SDS011;3036;49.960;8.454;2024-01-07T11:54:18;4.90;;;3.20;;
6015;SDS011;3036;49.960;8.454;2024-01-07T11:56:45;4.97;;;2.93;;
6015;SDS011;3036;49.960;8.454;2024-01-07T11:59:12;2.40;;;2.20;;
6015;SDS011;3036;49.960;8.454;2024-01-07T12:01:39;6.10;;;3.97;;
6015;SDS011;3036;49.960;8.454;2024-01-07T12:04:10;3.63;;;3.33;;
6015;SDS011;3036;49.960;8.454;2024-01-07T12:06:45;3.53;;;3.23;;
6015;SDS011;3036;49.960;8.454;2024-01-07T12:09:12;4.40;;;2.07;;
6015;SDS011;3036;49.960;8.454;2024-01-07T12:11:39;2.80;;;2.40;;
6015;SDS011;3036;49.960;8.454;2024-01-07T12:14:07;4.10;;;2.60;;
6015;SDS011;3036;49.960;8.454;2024-01-07T12:16:34;3.77;;;3.10;;
6015;SDS011;3036;49.960;8.454;2024-01-07T12:19:01;6.27;;;2.50;;
6015;SDS011;3036;49.960;8.454;2024-01-07T12:21:29;2.37;;;2.27;;
6015;SDS011;3036;49.960;8.454;2024-01-07T12:23:57;1.53;;;1.53;;
6015;SDS011;3036;49.960;8.454;2024-01-07T12:26:25;2.53;;;2.30;;
6015;SDS011;3036;49.960;8.454;2024-01-07T12:28:52;2.83;;;2.37;;
6015;SDS011;3036;49.960;8.454;2024-01-07T12:31:20;4.00;;;2.97;;
6015;SDS011;3036;49.960;8.454;2024-01-07T12:33:47;3.77;;;3.40;;
6015;SDS011;3036;49.960;8.454;2024-01-07T12:36:14;4.37;;;3.30;;
6015;SDS011;3036;49.960;8.454;2024-01-07T12:38:41;1.67;;;1.57;;
6015;SDS011;3036;49.960;8.454;2024-01-07T12:41:09;3.90;;;1.77;;
6015;SDS011;3036;49.960;8.454;2024-01-07T12:43:37;2.50;;;2.30;;
6015;SDS011;3036;49.960;8.454;2024-01-07T12:46:04;2.50;;;2.20;;
6015;SDS011;3036;49.960;8.454;2024-01-07T12:48:31;4.03;;;2.80;;
6015;SDS011;3036;49.960;8.454;2024-01-07T12:50:58;2.57;;;2.37;;
6015;SDS011;3036;49.960;8.454;2024-01-07T12:53:25;3.13;;;2.63;;
6015;SDS011;3036;49.960;8.454;2024-01-07T12:55:52;5.27;;;2.13;;
6015;SDS011;3036;49.960;8.454;2024-01-07T12:58:21;4.07;;;2.70;;
6015;SDS011;3036;49.960;8.454;2024-01-07T13:00:48;3.70;;;2.43;;
6015;SDS011;3036;49.960;8.454;2024-01-07T13:03:15;3.10;;;2.47;;
6015;SDS011;3036;49.960;8.454;2024-01-07T13:05:43;2.53;;;2.33;;
6015;SDS011;3036;49.960;8.454;2024-01-07T13:08:11;4.90;;;3.33;;
6015;SDS011;3036;49.960;8.454;2024-01-07T13:10:38;4.30;;;2.37;;
6015;SDS011;3036;49.960;8.454;2024-01-07T13:13:05;4.70;;;2.63;;
6015;SDS011;3036;49.960;8.454;2024-01-07T13:15:36;2.97;;;2.17;;
6015;SDS011;3036;49.960;8.454;2024-01-07T13:18:03;5.47;;;3.00;;
6015;SDS011;3036;49.960;8.454;2024-01-07T13:20:30;7.03;;;2.97;;
6015;SDS011;3036;49.960;8.454;2024-01-07T13:22:59;5.90;;;2.33;;
6015;SDS011;3036;49.960;8.454;2024-01-07T13:25:26;3.67;;;2.40;;
6015;SDS011;3036;49.960;8.454;2024-01-07T13:27:53;3.50;;;1.90;;
6015;SDS011;3036;49.960;8.454;2024-01-07T13:30:20;1.90;;;1.70;;
6015;SDS011;3036;49.960;8.454;2024-01-07T13:32:48;1.70;;;1.57;;
6015;SDS011;3036;49.960;8.454;2024-01-07T13:35:16;3.13;;;2.43;;
6015;SDS011;3036;49.960;8.454;2024-01-07T13:37:43;5.03;;;3.10;;
6015;SDS011;3036;49.960;8.454;2024-01-07T13:40:12;2.10;;;1.97;;
6015;SDS011;3036;49.960;8.454;2024-01-07T13:42:39;1.13;;;1.10;;
6015;SDS011;3036;49.960;8.454;2024-01-07T13:45:06;3.50;;;2.03;;
6015;SDS011;3036;49.960;8.454;2024-01-07T13:47:33;1.70;;;1.57;;
6015;SDS011;3036;49.960;8.454;2024-01-07T13:50:02;1.83;;;1.40;;
6015;SDS011;3036;49.960;8.454;2024-01-07T13:52:29;2.80;;;2.27;;
6015;SDS011;3036;49.960;8.454;2024-01-07T13:54:56;2.33;;;2.20;;
6015;SDS011;3036;49.960;8.454;2024-01-07T13:57:23;1.63;;;1.53;;
6015;SDS011;3036;49.960;8.454;2024-01-07T13:59:50;2.70;;;2.50;;
6015;SDS011;3036;49.960;8.454;2024-01-07T14:02:17;3.10;;;2.17;;
6015;SDS011;3036;49.960;8.454;2024-01-07T14:04:44;2.27;;;1.83;;
6015;SDS011;3036;49.960;8.454;2024-01-07T14:07:14;2.40;;;2.23;;
6015;SDS011;3036;49.960;8.454;2024-01-07T14:09:41;2.00;;;1.90;;
6015;SDS011;3036;49.960;8.454;2024-01-07T14:12:08;1.57;;;1.17;;
6015;SDS011;3036;49.960;8.454;2024-01-07T14:14:35;3.37;;;1.53;;
6015;SDS011;3036;49.960;8.454;2024-01-07T14:17:02;1.87;;;1.53;;
6015;SDS011;3036;49.960;8.454;2024-01-07T14:19:29;2.43;;;2.23;;
6015;SDS011;3036;49.960;8.454;2024-01-07T14:21:56;2.77;;;2.40;;
6015;SDS011;3036;49.960;8.454;2024-01-07T14:24:25;4.67;;;1.20;;
6015;SDS011;3036;49.960;8.454;2024-01-07T14:26:52;2.20;;;1.90;;
6015;SDS011;3036;49.960;8.454;2024-01-07T14:29:19;1.37;;;1.30;;
6015;SDS011;3036;49.960;8.454;2024-01-07T14:31:46;3.37;;;1.40;;
6015;SDS011;3036;49.960;8.454;2024-01-07T14:34:14;1.97;;;1.87;;
6015;SDS011;3036;49.960;8.454;2024-01-07T14:36:40;1.33;;;0.90;;
6015;SDS011;3036;49.960;8.454;2024-01-07T14:39:08;1.77;;;1.67;;
6015;SDS011;3036;49.960;8.454;2024-01-07T14:41:37;1.50;;;1.40;;
6015;SDS011;3036;49.960;8.454;2024-01-07T14:44:04;1.87;;;1.77;;
6015;SDS011;3036;49.960;8.454;2024-01-07T14:46:31;2.23;;;2.03;;
6015;SDS011;3036;49.960;8.454;2024-01-07T14:48:58;2.77;;;2.23;;
6015;SDS011;3036;49.960;8.454;2024-01-07T14:51:25;2.87;;;1.93;;
6015;SDS011;3036;49.960;8.454;2024-01-07T14:53:53;2.60;;;2.27;;
6015;SDS011;3036;49.960;8.454;2024-01-07T14:56:20;1.50;;;1.40;;
6015;SDS011;3036;49.960;8.454;2024-01-07T14:58:49;3.10;;;1.97;;
6015;SDS011;3036;49.960;8.454;2024-01-07T15:01:16;2.00;;;1.90;;
6015;SDS011;3036;49.960;8.454;2024-01-07T15:03:44;2.63;;;2.43;;
6015;SDS011;3036;49.960;8.454;2024-01-07T15:06:11;2.00;;;1.90;;
6015;SDS011;3036;49.960;8.454;2024-01-07T15:08:40;1.40;;;1.40;;
6015;SDS011;3036;49.960;8.454;2024-01-07T15:11:07;1.73;;;1.63;;
6015;SDS011;3036;49.960;8.454;2024-01-07T15:13:34;2.83;;;2.47;;
6015;SDS011;3036;49.960;8.454;2024-01-07T15:16:04;1.23;;;1.23;;
6015;SDS011;3036;49.960;8.454;2024-01-07T15:18:31;1.40;;;1.30;;